Saint Augustine, FL (32080)

8:20 PM EDT on September 02, 2015 (GMT -0400)
Saint Augustine South | | Change Station
CLOSE
Current Station
Personal Weather Station
Location: St. Augustine, FL
Elevation: 30 ft
Nearby Weather Stations

Elev 30 ft 29.84 °N, 81.32 °W | Updated 12 minutes ago

Overcast
Overcast
78.1 °F
Feels Like 81 °F
N
0.0
Wind Variable Wind from WSW

Today
High -- | Low -- °F
--% Chance of Precip.
Yesterday
High -- | Low -- °F
Precip. -- in
7:02 AM 7:46 PM
Waning Gibbous, 76% visible
Pressure 29.98 in
Visibility 10.0 miles
Clouds Few 10000 ft
Heat Index 81 °F
Dew Point 72 °F
Humidity 83%
Rainfall 0.17 in
Snow Depth Not available.
UV 0 out of 12
Pollen 3.10 out of 12
Air Quality Not available.
Flu Activity Not available.
METAR KSGJ 022358Z 22004KT 10SM FEW100 26/23 A2998 RMK AO2 TSE03RAB34E46 SLP152 P0000 60035 T02560233 10322 20256 58009
Pressure 29.98 in
Visibility 10.0 miles
Clouds Few 10000 ft
Heat Index 81 °F
Dew Point 72 °F
Humidity 83%
Rainfall 0.17 in
Snow Depth Not available.
UV 0 out of 12
Pollen 3.10 out of 12
Air Quality Not available.
Flu Activity Not available.
METAR KSGJ 022358Z 22004KT 10SM FEW100 26/23 A2998 RMK AO2 TSE03RAB34E46 SLP152 P0000 60035 T02560233 10322 20256 58009

10-Day Weather Forecast

×

Almanac

Astronomy

Sep. 02, 2015 Rise Set
Actual Time
Civil Twilight
Nautical Twilight
Astronomical Twilight
Moon
Length of Visible Light
Length of Day
Tomorrow will be .
, % of the Moon is Illuminated

Today's Extremes

State Highs State Lows

Community

WunderPhotos

Upload Photos

1,851,849 photos uploaded!

WunderBlogs® & News

Nearby

Air Quality

  Air Quality AQ Index Pollutant
Not available.

Snow Depth

Station Depth Elevation

Earthquake Activity

City Distance Mag. Time & Date
Minimum magnitude displayed is 2.5.

Coastal Water Temperatures

Place Temperature

Stations

Nearby Weather Stations

Station Location Temp. Windchill Dew Point Humidity Wind Precip. Elev Updated Type